createdAt,value
2018-02-01T00:00:59.212Z,23.8
2018-02-01T00:10:59.149Z,36.9
2018-02-01T00:20:59.011Z,36.7
2018-02-01T00:30:58.759Z,53.9
2018-02-01T00:40:58.450Z,69.9
2018-02-01T00:50:59.207Z,64.3
2018-02-01T01:00:58.897Z,44.2
2018-02-01T01:10:58.637Z,49.1
2018-02-01T01:20:58.588Z,43.8
2018-02-01T01:30:58.312Z,39.0
2018-02-01T01:40:59.035Z,50.2
2018-02-01T01:50:58.804Z,35.3
2018-02-01T02:00:58.504Z,31.3
2018-02-01T02:10:59.281Z,24.9
2018-02-01T02:20:59.142Z,17.7
2018-02-01T02:30:58.895Z,22.6
2018-02-01T02:40:58.680Z,19.1
2018-02-01T02:50:58.416Z,18.7
2018-02-01T03:00:59.110Z,17.4
2018-02-01T03:10:58.855Z,13.4
2018-02-01T03:20:58.710Z,14.0
2018-02-01T03:30:58.467Z,15.5
2018-02-01T03:40:59.224Z,17.1
2018-02-01T03:50:58.998Z,14.7
2018-02-01T04:00:58.669Z,13.2
2018-02-01T04:10:58.664Z,11.8
2018-02-01T04:20:58.620Z,11.3
2018-02-01T04:30:58.384Z,10.5
2018-02-01T04:40:59.147Z,11.8
2018-02-01T04:50:58.894Z,10.7
2018-02-01T05:00:58.635Z,11.7
2018-02-01T05:10:58.321Z,13.4
2018-02-01T05:20:59.217Z,14.6
2018-02-01T05:30:58.664Z,11.9
2018-02-01T05:40:58.526Z,15.1
2018-02-01T05:50:59.337Z,11.3
2018-02-01T06:00:59.110Z,15.3
2018-02-01T06:10:58.777Z,13.2
2018-02-01T06:20:58.734Z,15.2
2018-02-01T06:30:58.473Z,19.4
2018-02-01T06:40:59.244Z,24.1
2018-02-01T06:50:58.990Z,18.5
2018-02-01T07:00:58.725Z,19.6
2018-02-01T07:10:58.452Z,22.2
2018-02-01T07:20:59.150Z,23.3
2018-02-01T07:30:58.890Z,23.4
2018-02-01T07:40:58.623Z,24.2
2018-02-01T07:50:58.373Z,18.7
2018-02-01T08:00:59.103Z,22.7
2018-02-01T08:10:58.849Z,23.2
2018-02-01T08:20:58.783Z,22.4
2018-02-01T08:30:58.531Z,21.4
2018-02-01T08:40:59.355Z,17.0
2018-02-01T08:50:59.214Z,17.4
2018-02-01T09:00:58.960Z,16.7
2018-02-01T09:10:58.712Z,15.2
2018-02-01T09:20:58.595Z,15.1
2018-02-01T09:30:59.332Z,13.6
2018-02-01T09:40:59.064Z,10.8
2018-02-01T09:50:58.857Z,11.5
2018-02-01T10:00:58.650Z,12.6
2018-02-01T10:10:58.353Z,11.5
2018-02-01T10:20:59.150Z,13.4
2018-02-01T10:30:58.918Z,11.3
2018-02-01T10:40:58.673Z,13.5
2018-02-01T10:50:58.458Z,14.0
2018-02-01T11:00:59.213Z,10.7
2018-02-01T11:10:59.017Z,13.3
2018-02-01T11:20:58.914Z,15.4
2018-02-01T11:30:58.665Z,15.1
2018-02-01T11:40:58.377Z,14.0
2018-02-01T11:50:59.134Z,14.0
2018-02-01T12:00:58.947Z,18.7
2018-02-01T12:10:58.600Z,25.7
2018-02-01T12:20:58.451Z,19.9
2018-02-01T12:30:59.113Z,24.4
2018-02-01T12:40:58.860Z,27.2
2018-02-01T12:50:58.531Z,29.6
2018-02-01T13:00:59.305Z,24.4
2018-02-01T13:10:59.049Z,25.7
2018-02-01T13:20:58.853Z,23.3
2018-02-01T13:30:58.601Z,27.1
2018-02-01T13:40:59.351Z,30.1
2018-02-01T13:50:59.107Z,32.4
2018-02-01T14:00:58.915Z,37.1
2018-02-01T14:10:58.651Z,37.2
2018-02-01T14:20:58.545Z,39.5
2018-02-01T14:30:59.321Z,29.1
2018-02-01T14:40:59.133Z,28.2
2018-02-01T14:50:58.910Z,26.4
2018-02-01T15:00:58.667Z,23.6
2018-02-01T15:10:58.437Z,27.1
2018-02-01T15:20:59.210Z,26.8
2018-02-01T15:30:59.040Z,26.0
2018-02-01T15:40:58.805Z,32.0
2018-02-01T15:50:58.538Z,30.0
2018-02-01T16:00:59.328Z,32.7
2018-02-01T16:10:59.101Z,50.1
2018-02-01T16:20:59.228Z,48.4
2018-02-01T16:30:58.921Z,45.6
2018-02-01T16:40:58.620Z,50.2
2018-02-01T16:50:59.417Z,58.9
2018-02-01T17:00:59.157Z,78.7
2018-02-01T17:10:58.997Z,102.2
2018-02-01T17:20:58.884Z,95.7
2018-02-01T17:30:58.675Z,104.6
2018-02-01T17:40:59.481Z,90.5
2018-02-01T17:50:59.348Z,91.5
2018-02-01T18:00:59.186Z,83.5
2018-02-01T18:10:58.874Z,90.8
2018-02-01T18:20:58.795Z,83.4
2018-02-01T18:30:58.587Z,82.1
2018-02-01T18:40:59.405Z,74.3
2018-02-01T18:50:59.162Z,93.5
2018-02-01T19:00:58.931Z,80.7
2018-02-01T19:10:58.824Z,95.6
2018-02-01T19:20:58.801Z,104.8
2018-02-01T19:30:58.655Z,104.9
2018-02-01T19:40:59.419Z,103.1
2018-02-01T19:50:59.147Z,126.3
2018-02-01T20:00:58.868Z,103.2
2018-02-01T20:10:58.667Z,116.4
2018-02-01T20:20:59.477Z,110.2
2018-02-01T20:30:59.262Z,114.5
2018-02-01T20:40:59.048Z,91.8
2018-02-01T20:50:58.886Z,86.2
2018-02-01T21:00:58.655Z,68.9
2018-02-01T21:11:00.457Z,92.9
2018-02-01T21:21:00.352Z,64.9
2018-02-01T21:30:59.185Z,65.6
2018-02-01T21:40:58.897Z,62.9
2018-02-01T21:50:58.688Z,68.6
2018-02-01T22:00:59.450Z,58.3
2018-02-01T22:10:59.229Z,50.0
2018-02-01T22:20:59.144Z,44.5
2018-02-01T22:30:58.911Z,45.2
2018-02-01T22:40:58.670Z,46.5
2018-02-01T22:50:59.429Z,48.7
2018-02-01T23:00:59.169Z,58.3
2018-02-01T23:10:58.904Z,71.8
2018-02-01T23:20:58.873Z,88.7
2018-02-01T23:30:58.644Z,86.7
2018-02-01T23:40:59.429Z,36.1
2018-02-01T23:50:59.165Z,26.7
